Weather at Bassel Al-Assad International Airport

Public forecast

Using degrees Celsius for public forecast. Weather courtesy of forecast.io.

Current aviation weather report (METAR) for Bassel Al-Assad International Airport

2022/11/30 06:00 (retrieved 22 minutes ago)

OSLK 300600Z 03003KT 9999 FEW030 BKN100 14/11 Q1014

Aviation forecast (TAF) for Bassel Al-Assad International Airport

Forecast is more than 12 hours old.

2022/11/28 06:36 (retrieved 2 days ago)

TAF TAF OSLK 280400Z 2806/2906 09018G36KT 9999 FEW026 SCT030 BKN100